createdAt,value
2022-08-31T00:01:00.600Z,98552.78
2022-08-31T00:03:46.806Z,98549.94
2022-08-31T00:06:17.418Z,98556.06
2022-08-31T00:08:48.001Z,98553.34
2022-08-31T00:11:17.235Z,98554.44
2022-08-31T00:13:46.612Z,98553.25
2022-08-31T00:16:15.623Z,98549.38
2022-08-31T00:18:44.633Z,98552.88
2022-08-31T00:21:13.682Z,98561.66
2022-08-31T00:23:42.748Z,98557.91
2022-08-31T00:26:13.105Z,98562.31
2022-08-31T00:28:42.204Z,98569.97
2022-08-31T00:31:12.341Z,98570.78
2022-08-31T00:33:42.421Z,98569.97
2022-08-31T00:36:13.891Z,98572.44
2022-08-31T00:38:43.182Z,98581.19
2022-08-31T00:41:13.869Z,98578.44
2022-08-31T00:43:47.807Z,98574.75
2022-08-31T00:46:19.638Z,98572.88
2022-08-31T00:48:56.072Z,98571.41
2022-08-31T00:51:26.538Z,98568.00
2022-08-31T00:53:56.385Z,98571.16
2022-08-31T00:56:28.110Z,98566.59
2022-08-31T00:58:57.252Z,98571.66
2022-08-31T01:01:27.633Z,98572.00
2022-08-31T01:03:56.920Z,98568.41
2022-08-31T01:06:26.996Z,98573.69
2022-08-31T01:08:58.435Z,98571.16
2022-08-31T01:11:29.554Z,98570.78
2022-08-31T01:13:58.802Z,98564.88
2022-08-31T01:16:34.562Z,98565.38
2022-08-31T01:19:08.892Z,98566.75
2022-08-31T01:21:45.181Z,98558.31
2022-08-31T01:24:17.326Z,98565.03
2022-08-31T01:26:49.734Z,98555.00
2022-08-31T01:29:25.440Z,98559.25
2022-08-31T01:31:54.452Z,98560.16
2022-08-31T01:34:25.404Z,98555.63
2022-08-31T01:36:55.495Z,98559.75
2022-08-31T01:39:26.259Z,98561.22
2022-08-31T01:41:55.694Z,98557.06
2022-08-31T01:44:27.360Z,98559.75
2022-08-31T01:46:57.087Z,98558.81
2022-08-31T01:49:29.543Z,98549.47
2022-08-31T01:51:59.249Z,98553.72
2022-08-31T01:54:31.141Z,98544.16
2022-08-31T01:57:01.436Z,98545.81
2022-08-31T01:59:46.518Z,98536.28
2022-08-31T02:02:39.001Z,98537.09
2022-08-31T02:05:12.164Z,98543.81
2022-08-31T02:07:41.369Z,98540.41
2022-08-31T02:10:12.006Z,98540.53
2022-08-31T02:12:42.130Z,98535.59
2022-08-31T02:15:11.700Z,98549.19
2022-08-31T02:17:41.014Z,98543.72
2022-08-31T02:20:12.345Z,98536.09
2022-08-31T02:22:41.477Z,98540.72
2022-08-31T02:25:13.288Z,98533.72
2022-08-31T02:27:42.456Z,98533.44
2022-08-31T02:30:16.380Z,98529.06
2022-08-31T02:32:46.162Z,98530.34
2022-08-31T02:35:15.568Z,98531.16
2022-08-31T02:37:44.849Z,98527.69
2022-08-31T02:40:15.797Z,98526.16
2022-08-31T02:42:53.302Z,98530.09
2022-08-31T02:45:25.734Z,98528.75
2022-08-31T02:48:00.209Z,98525.31
2022-08-31T02:50:34.144Z,98523.56
2022-08-31T02:53:03.195Z,98519.53
2022-08-31T02:55:33.651Z,98523.56
2022-08-31T02:58:03.202Z,98527.47
2022-08-31T03:00:33.018Z,98524.19
2022-08-31T03:03:02.373Z,98522.03
2022-08-31T03:05:31.587Z,98517.09
2022-08-31T03:08:00.635Z,98522.94
2022-08-31T03:10:29.702Z,98517.66
2022-08-31T03:13:00.293Z,98516.72
2022-08-31T03:15:29.955Z,98520.44
2022-08-31T03:17:59.265Z,98521.00
2022-08-31T03:20:29.744Z,98514.66
2022-08-31T03:23:03.106Z,98509.19
2022-08-31T03:25:34.271Z,98522.53
2022-08-31T03:28:05.531Z,98516.16
2022-08-31T03:30:38.323Z,98516.84
2022-08-31T03:33:10.628Z,98524.91
2022-08-31T03:35:43.771Z,98527.50
2022-08-31T03:38:16.049Z,98512.31
2022-08-31T03:40:46.105Z,98521.84
2022-08-31T03:43:16.806Z,98514.78
2022-08-31T03:45:46.148Z,98516.72
2022-08-31T03:48:15.436Z,98514.84
2022-08-31T03:50:46.961Z,98513.41
2022-08-31T03:53:25.650Z,98515.19
2022-08-31T03:56:01.972Z,98509.28
2022-08-31T03:58:34.541Z,98516.66
2022-08-31T04:01:04.208Z,98509.44
2022-08-31T04:03:53.228Z,98508.72
2022-08-31T04:06:41.773Z,98506.78
2022-08-31T04:09:30.025Z,98504.44
2022-08-31T04:12:20.517Z,98503.59
2022-08-31T04:15:12.375Z,98500.06
2022-08-31T04:18:00.016Z,98495.56
2022-08-31T04:20:49.694Z,98494.00
2022-08-31T04:23:20.219Z,98497.56
2022-08-31T04:25:53.586Z,98490.59
2022-08-31T04:28:22.570Z,98491.59
2022-08-31T04:30:53.289Z,98496.22
2022-08-31T04:33:23.133Z,98486.84
2022-08-31T04:35:52.176Z,98490.47
2022-08-31T04:38:21.858Z,98488.72
2022-08-31T04:40:52.573Z,98493.13
2022-08-31T04:43:23.679Z,98485.47
2022-08-31T04:45:55.383Z,98489.16
2022-08-31T04:48:24.372Z,98491.00
2022-08-31T04:51:01.385Z,98492.16
2022-08-31T04:53:30.663Z,98485.09
2022-08-31T04:56:00.743Z,98492.16
2022-08-31T04:58:29.838Z,98486.06
2022-08-31T05:01:00.419Z,98491.66
2022-08-31T05:04:01.953Z,98503.38
2022-08-31T05:06:33.178Z,98496.16
2022-08-31T05:09:04.997Z,98503.22
2022-08-31T05:11:34.937Z,98498.94
2022-08-31T05:14:06.467Z,98508.75
2022-08-31T05:16:38.857Z,98491.69
2022-08-31T05:19:08.121Z,98488.34
2022-08-31T05:21:39.020Z,98492.19
2022-08-31T05:24:11.046Z,98489.91
2022-08-31T05:26:46.008Z,98478.03
2022-08-31T05:29:17.515Z,98490.69
2022-08-31T05:31:52.271Z,98483.94
2022-08-31T05:34:22.707Z,98486.22
2022-08-31T05:36:54.277Z,98487.34
2022-08-31T05:39:24.105Z,98484.41
2022-08-31T05:41:54.280Z,98491.19
2022-08-31T05:44:26.085Z,98486.47
2022-08-31T05:47:03.766Z,98488.47
2022-08-31T05:49:34.175Z,98483.53
2022-08-31T05:52:03.717Z,98489.25
2022-08-31T05:54:34.997Z,98483.06
2022-08-31T05:57:04.406Z,98500.19
2022-08-31T05:59:33.414Z,98490.69
2022-08-31T06:02:05.273Z,98497.91
2022-08-31T06:04:35.858Z,98488.25
2022-08-31T06:07:05.672Z,98493.28
2022-08-31T06:09:52.736Z,98502.47
2022-08-31T06:12:25.728Z,98500.19
2022-08-31T06:14:56.671Z,98499.19
2022-08-31T06:17:29.298Z,98503.28
2022-08-31T06:19:58.436Z,98501.91
2022-08-31T06:22:27.862Z,98504.03
2022-08-31T06:24:58.565Z,98497.84
2022-08-31T06:27:27.991Z,98505.88
2022-08-31T06:30:02.244Z,98507.72
2022-08-31T06:32:37.685Z,98504.03
2022-08-31T06:35:08.555Z,98506.06
2022-08-31T06:38:02.929Z,98515.59
2022-08-31T06:41:15.702Z,98516.53
2022-08-31T06:44:07.859Z,98528.50
2022-08-31T06:46:54.512Z,98531.59
2022-08-31T06:49:28.925Z,98527.75
2022-08-31T06:52:00.386Z,98538.41
2022-08-31T06:54:31.127Z,98532.88
2022-08-31T06:57:18.677Z,98533.28
2022-08-31T07:00:13.950Z,98530.66
2022-08-31T07:02:57.374Z,98547.09
2022-08-31T07:05:29.074Z,98550.91
2022-08-31T07:07:59.299Z,98549.97
2022-08-31T07:10:28.461Z,98545.22
2022-08-31T07:12:57.917Z,98559.44
2022-08-31T07:15:27.126Z,98551.03
2022-08-31T07:17:56.465Z,98562.97
2022-08-31T07:20:26.069Z,98559.69
2022-08-31T07:22:57.047Z,98553.81
2022-08-31T07:25:39.826Z,98544.16
2022-08-31T07:28:11.489Z,98542.34
2022-08-31T07:30:42.456Z,98551.00
2022-08-31T07:33:17.125Z,98552.66
2022-08-31T07:35:53.299Z,98552.66
2022-08-31T07:39:03.608Z,98542.75
2022-08-31T07:41:51.455Z,98544.00
2022-08-31T07:44:21.501Z,98547.13
2022-08-31T07:46:55.278Z,98551.81
2022-08-31T07:49:26.407Z,98549.84
2022-08-31T07:52:24.387Z,98551.63
2022-08-31T07:55:12.713Z,98553.63
2022-08-31T07:58:02.729Z,98558.50
2022-08-31T08:00:36.278Z,98553.81
2022-08-31T08:03:08.507Z,98555.34
2022-08-31T08:05:56.142Z,98559.16
2022-08-31T08:08:57.055Z,98542.97
2022-08-31T08:12:07.392Z,98553.25
2022-08-31T08:14:59.681Z,98546.88
2022-08-31T08:17:47.113Z,98551.00
2022-08-31T08:20:34.284Z,98550.28
2022-08-31T08:23:13.656Z,98553.94
2022-08-31T08:26:10.801Z,98548.66
2022-08-31T08:29:15.487Z,98551.41
2022-08-31T08:31:52.323Z,98556.59
2022-08-31T08:34:31.063Z,98554.44
2022-08-31T08:37:08.198Z,98548.50
2022-08-31T08:39:37.332Z,98552.03
2022-08-31T08:42:23.645Z,98559.78
2022-08-31T08:44:54.337Z,98558.47
2022-08-31T08:47:38.056Z,98562.88
2022-08-31T08:50:09.367Z,98564.66
2022-08-31T08:52:43.773Z,98555.84
2022-08-31T08:55:16.938Z,98558.28
2022-08-31T08:57:49.629Z,98562.00
2022-08-31T09:00:24.997Z,98565.13
2022-08-31T09:03:02.293Z,98561.84
2022-08-31T09:06:00.483Z,98558.91
2022-08-31T09:09:00.857Z,98563.94
2022-08-31T09:11:38.299Z,98560.34
2022-08-31T09:14:19.225Z,98579.34
2022-08-31T09:16:59.855Z,98574.50
2022-08-31T09:19:49.665Z,98566.50
2022-08-31T09:22:18.945Z,98570.19
2022-08-31T09:24:52.358Z,98575.34
2022-08-31T09:27:47.205Z,98571.22
2022-08-31T09:30:33.492Z,98569.94
2022-08-31T09:33:04.174Z,98569.41
2022-08-31T09:35:40.681Z,98573.38
2022-08-31T09:38:14.054Z,98565.75
2022-08-31T09:40:45.546Z,98569.28
2022-08-31T09:43:30.094Z,98580.69
2022-08-31T09:46:05.625Z,98572.88
2022-08-31T09:48:52.132Z,98568.84
2022-08-31T09:51:28.363Z,98573.31
2022-08-31T09:54:36.495Z,98574.94
2022-08-31T09:57:07.924Z,98576.88
2022-08-31T09:59:42.130Z,98577.13
2022-08-31T10:02:30.367Z,98583.44
2022-08-31T10:05:04.453Z,98576.75
2022-08-31T10:07:44.065Z,98576.81
2022-08-31T10:10:30.282Z,98595.13
2022-08-31T10:13:03.923Z,98593.34
2022-08-31T10:15:41.266Z,98604.25
2022-08-31T10:18:21.750Z,98604.09
2022-08-31T10:20:57.105Z,98599.56
2022-08-31T10:23:34.855Z,98597.19
2022-08-31T10:26:09.461Z,98601.13
2022-08-31T10:28:44.360Z,98604.38
2022-08-31T10:31:21.208Z,98600.44
2022-08-31T10:34:24.030Z,98599.56
2022-08-31T10:37:03.663Z,98597.19
2022-08-31T10:39:38.710Z,98600.59
2022-08-31T10:42:15.834Z,98596.75
2022-08-31T10:44:57.203Z,98598.00
2022-08-31T10:47:34.222Z,98606.03
2022-08-31T10:50:04.792Z,98600.66
2022-08-31T10:52:43.085Z,98602.81
2022-08-31T10:55:19.707Z,98598.13
2022-08-31T10:57:54.932Z,98597.03
2022-08-31T11:00:48.034Z,98596.66
2022-08-31T11:03:27.323Z,98592.84
2022-08-31T11:06:04.694Z,98590.53
2022-08-31T11:08:49.155Z,98593.78
2022-08-31T11:11:26.325Z,98594.09
2022-08-31T11:14:10.027Z,98596.16
2022-08-31T11:16:59.712Z,98603.56
2022-08-31T11:20:07.382Z,98606.09
2022-08-31T11:22:56.600Z,98618.00
2022-08-31T11:25:51.591Z,98608.53
2022-08-31T11:28:32.247Z,98600.13
2022-08-31T11:31:03.463Z,98605.53
2022-08-31T11:33:32.741Z,98601.78
2022-08-31T11:36:07.261Z,98612.03
2022-08-31T11:39:26.981Z,98619.19
2022-08-31T11:41:59.570Z,98622.16
2022-08-31T11:45:03.078Z,98606.69
2022-08-31T11:47:43.457Z,98618.88
2022-08-31T11:50:54.116Z,98617.38
2022-08-31T11:53:39.854Z,98618.88
2022-08-31T11:56:09.938Z,98620.94
2022-08-31T11:58:44.884Z,98622.22
2022-08-31T12:01:35.182Z,98616.41
2022-08-31T12:04:07.373Z,98625.72
2022-08-31T12:07:13.638Z,98621.53
2022-08-31T12:10:08.107Z,98617.22
2022-08-31T12:13:07.835Z,98623.78
2022-08-31T12:16:01.397Z,98625.38
2022-08-31T12:18:44.231Z,98619.50
2022-08-31T12:21:40.836Z,98626.16
2022-08-31T12:24:24.517Z,98632.47
2022-08-31T12:27:05.982Z,98628.97
2022-08-31T12:29:36.837Z,98627.41
2022-08-31T12:32:23.543Z,98628.03
2022-08-31T12:35:01.905Z,98630.16
2022-08-31T12:37:33.617Z,98636.72
2022-08-31T12:40:27.345Z,98628.75
2022-08-31T12:43:03.898Z,98640.03
2022-08-31T12:45:47.818Z,98654.31
2022-08-31T12:48:32.872Z,98660.63
2022-08-31T12:51:10.857Z,98642.81
2022-08-31T12:54:23.222Z,98642.41
2022-08-31T12:57:00.993Z,98642.09
2022-08-31T13:00:00.007Z,98639.16
2022-08-31T13:02:33.195Z,98642.78
2022-08-31T13:05:17.840Z,98635.59
2022-08-31T13:07:46.892Z,98635.06
2022-08-31T13:10:25.189Z,98635.28
2022-08-31T13:12:56.283Z,98633.97
2022-08-31T13:15:28.100Z,98653.44
2022-08-31T13:17:59.558Z,98639.31
2022-08-31T13:20:35.607Z,98641.69
2022-08-31T13:23:08.076Z,98659.19
2022-08-31T13:25:37.628Z,98660.88
2022-08-31T13:28:18.949Z,98663.91
2022-08-31T13:31:01.480Z,98671.38
2022-08-31T13:33:35.265Z,98664.38
2022-08-31T13:36:11.389Z,98673.19
2022-08-31T13:38:50.558Z,98667.22
2022-08-31T13:41:27.529Z,98668.03
2022-08-31T13:44:03.523Z,98673.91
2022-08-31T13:46:43.283Z,98666.84
2022-08-31T13:49:32.462Z,98666.16
2022-08-31T13:52:04.257Z,98674.03
2022-08-31T13:54:35.232Z,98677.53
2022-08-31T13:57:12.904Z,98670.84
2022-08-31T13:59:42.524Z,98681.31
2022-08-31T14:02:36.828Z,98678.41
2022-08-31T14:05:10.101Z,98674.66
2022-08-31T14:08:03.763Z,98680.22
2022-08-31T14:10:36.448Z,98689.16
2022-08-31T14:13:12.150Z,98676.31
2022-08-31T14:15:50.505Z,98690.38
2022-08-31T14:18:27.677Z,98691.75
2022-08-31T14:21:29.071Z,98695.28
2022-08-31T14:24:03.436Z,98689.09
2022-08-31T14:26:34.634Z,98693.78
2022-08-31T14:29:10.885Z,98687.91
2022-08-31T14:31:45.269Z,98693.81
2022-08-31T14:34:23.925Z,98698.84
2022-08-31T14:36:57.640Z,98694.06
2022-08-31T14:39:32.045Z,98694.69
2022-08-31T14:42:03.788Z,98696.94
2022-08-31T14:44:37.720Z,98696.66
2022-08-31T14:47:08.406Z,98697.50
2022-08-31T14:49:39.198Z,98714.28
2022-08-31T14:52:08.558Z,98713.28
2022-08-31T14:54:39.109Z,98716.59
2022-08-31T14:57:12.839Z,98714.03
2022-08-31T14:59:44.843Z,98716.06
2022-08-31T15:02:21.519Z,98722.47
2022-08-31T15:04:51.559Z,98726.91
2022-08-31T15:07:21.613Z,98730.72
2022-08-31T15:09:52.130Z,98733.47
2022-08-31T15:12:21.272Z,98732.28
2022-08-31T15:14:50.288Z,98735.00
2022-08-31T15:17:20.625Z,98729.59
2022-08-31T15:19:53.115Z,98733.72
2022-08-31T15:22:22.636Z,98737.19
2022-08-31T15:24:54.634Z,98743.94
2022-08-31T15:27:29.135Z,98746.25
2022-08-31T15:30:04.581Z,98749.13
2022-08-31T15:32:34.416Z,98741.69
2022-08-31T15:35:03.900Z,98748.47
2022-08-31T15:37:33.093Z,98751.13
2022-08-31T15:40:05.912Z,98749.97
2022-08-31T15:42:39.686Z,98755.91
2022-08-31T15:45:10.138Z,98758.22
2022-08-31T15:47:59.447Z,98753.53
2022-08-31T15:50:31.624Z,98762.69
2022-08-31T15:53:08.206Z,98774.78
2022-08-31T15:55:44.913Z,98774.06
2022-08-31T15:58:14.900Z,98769.13
2022-08-31T16:00:44.070Z,98774.69
2022-08-31T16:03:13.335Z,98784.09
2022-08-31T16:05:44.318Z,98782.69
2022-08-31T16:08:14.384Z,98779.84
2022-08-31T16:10:47.634Z,98785.78
2022-08-31T16:13:17.046Z,98794.03
2022-08-31T16:15:51.175Z,98804.47
2022-08-31T16:18:22.004Z,98807.69
2022-08-31T16:20:52.075Z,98807.56
2022-08-31T16:23:24.887Z,98804.44
2022-08-31T16:25:55.385Z,98804.16
2022-08-31T16:28:24.668Z,98807.75
2022-08-31T16:30:53.765Z,98809.97
2022-08-31T16:33:23.019Z,98819.41
2022-08-31T16:35:52.109Z,98821.06
2022-08-31T16:38:21.688Z,98814.09
2022-08-31T16:40:53.358Z,98817.44
2022-08-31T16:43:25.386Z,98821.97
2022-08-31T16:45:55.728Z,98818.06
2022-08-31T16:48:48.637Z,98819.84
2022-08-31T16:51:19.899Z,98825.84
2022-08-31T16:53:52.265Z,98827.78
2022-08-31T16:56:24.285Z,98826.06
2022-08-31T16:58:58.362Z,98833.72
2022-08-31T17:01:30.655Z,98836.03
2022-08-31T17:04:03.323Z,98842.75
2022-08-31T17:06:38.723Z,98841.84
2022-08-31T17:09:08.906Z,98842.19
2022-08-31T17:11:43.933Z,98846.78
2022-08-31T17:14:15.890Z,98840.13
2022-08-31T17:16:45.908Z,98842.53
2022-08-31T17:19:16.160Z,98841.63
2022-08-31T17:21:49.624Z,98845.75
2022-08-31T17:24:23.555Z,98849.66
2022-08-31T17:26:57.069Z,98847.69
2022-08-31T17:29:32.235Z,98843.84
2022-08-31T17:32:06.200Z,98857.78
2022-08-31T17:34:37.933Z,98848.25
2022-08-31T17:37:11.337Z,98847.38
2022-08-31T17:39:40.714Z,98843.75
2022-08-31T17:42:11.157Z,98835.81
2022-08-31T17:44:42.936Z,98836.88
2022-08-31T17:47:12.631Z,98838.66
2022-08-31T17:49:46.297Z,98841.28
2022-08-31T17:52:15.901Z,98843.63
2022-08-31T17:54:46.020Z,98829.50
2022-08-31T17:57:17.197Z,98833.59
2022-08-31T17:59:49.600Z,98835.72
2022-08-31T18:02:21.510Z,98844.75
2022-08-31T18:04:52.507Z,98841.13
2022-08-31T18:07:21.901Z,98840.06
2022-08-31T18:09:50.987Z,98841.81
2022-08-31T18:12:22.179Z,98844.41
2022-08-31T18:14:57.506Z,98844.25
2022-08-31T18:17:27.074Z,98839.91
2022-08-31T18:19:56.965Z,98846.81
2022-08-31T18:22:26.410Z,98851.06
2022-08-31T18:24:55.967Z,98849.50
2022-08-31T18:27:25.355Z,98857.22
2022-08-31T18:29:56.415Z,98841.50
2022-08-31T18:32:31.568Z,98850.97
2022-08-31T18:35:00.615Z,98837.03
2022-08-31T18:37:33.141Z,98832.22
2022-08-31T18:40:21.771Z,98834.75
2022-08-31T18:43:08.689Z,98844.75
2022-08-31T18:45:39.994Z,98842.22
2022-08-31T18:48:26.272Z,98830.06
2022-08-31T18:50:59.236Z,98834.50
2022-08-31T18:53:30.468Z,98831.72
2022-08-31T18:56:07.906Z,98831.47
2022-08-31T18:58:38.757Z,98835.72
2022-08-31T19:01:12.376Z,98833.75
2022-08-31T19:03:42.874Z,98838.25
2022-08-31T19:06:19.174Z,98845.56
2022-08-31T19:08:49.601Z,98833.75
2022-08-31T19:11:20.527Z,98837.09
2022-08-31T19:13:51.562Z,98829.81
2022-08-31T19:16:25.202Z,98839.97
2022-08-31T19:18:56.850Z,98834.53
2022-08-31T19:21:28.305Z,98830.22
2022-08-31T19:24:00.885Z,98850.28
2022-08-31T19:26:36.082Z,98843.06
2022-08-31T19:29:08.804Z,98836.59
2022-08-31T19:31:42.063Z,98832.78
2022-08-31T19:34:12.958Z,98839.69
2022-08-31T19:36:43.737Z,98839.31
2022-08-31T19:39:16.288Z,98834.72
2022-08-31T19:41:50.289Z,98835.56
2022-08-31T19:44:22.454Z,98829.22
2022-08-31T19:46:53.714Z,98827.44
2022-08-31T19:49:23.460Z,98821.28
2022-08-31T19:51:58.432Z,98829.75
2022-08-31T19:54:31.356Z,98826.72
2022-08-31T19:57:03.516Z,98825.91
2022-08-31T19:59:34.413Z,98817.94
2022-08-31T20:02:08.939Z,98818.59
2022-08-31T20:04:38.450Z,98817.88
2022-08-31T20:07:07.819Z,98812.72
2022-08-31T20:09:38.521Z,98809.84
2022-08-31T20:12:08.468Z,98821.69
2022-08-31T20:14:38.160Z,98813.75
2022-08-31T20:17:09.909Z,98825.38
2022-08-31T20:19:39.688Z,98830.91
2022-08-31T20:22:09.080Z,98821.69
2022-08-31T20:24:45.011Z,98829.97
2022-08-31T20:27:18.556Z,98824.66
2022-08-31T20:29:48.798Z,98826.38
2022-08-31T20:32:19.311Z,98825.75
2022-08-31T20:34:49.851Z,98814.47
2022-08-31T20:37:19.074Z,98821.50
2022-08-31T20:39:48.162Z,98817.53
2022-08-31T20:42:17.535Z,98817.72
2022-08-31T20:44:49.072Z,98820.31
2022-08-31T20:47:37.272Z,98812.66
2022-08-31T20:50:11.634Z,98809.56
2022-08-31T20:52:40.856Z,98819.84
2022-08-31T20:55:12.526Z,98806.69
2022-08-31T20:57:41.950Z,98812.34
2022-08-31T21:00:12.187Z,98811.81
2022-08-31T21:02:43.979Z,98813.09
2022-08-31T21:08:07.763Z,98816.50
2022-08-31T21:10:40.312Z,98811.41
2022-08-31T21:13:11.977Z,98799.41
2022-08-31T21:15:42.996Z,98805.13
2022-08-31T21:18:17.653Z,98810.53
2022-08-31T21:20:47.906Z,98805.78
2022-08-31T21:23:17.419Z,98793.28
2022-08-31T21:25:47.932Z,98811.34
2022-08-31T21:28:18.478Z,98799.25
2022-08-31T21:30:50.327Z,98795.94
2022-08-31T21:33:21.470Z,98802.28
2022-08-31T21:35:50.740Z,98794.25
2022-08-31T21:38:20.204Z,98797.25
2022-08-31T21:40:50.424Z,98781.31
2022-08-31T21:43:20.044Z,98787.03
2022-08-31T21:45:55.379Z,98787.25
2022-08-31T21:48:26.004Z,98788.66
2022-08-31T21:50:55.855Z,98789.47
2022-08-31T21:53:27.300Z,98787.25
2022-08-31T21:55:56.528Z,98789.47
2022-08-31T21:58:27.197Z,98788.84
2022-08-31T22:00:56.528Z,98785.88
2022-08-31T22:03:27.547Z,98793.09
2022-08-31T22:05:56.763Z,98793.09
2022-08-31T22:08:26.183Z,98800.81
2022-08-31T22:10:55.606Z,98794.59
2022-08-31T22:13:24.788Z,98810.75
2022-08-31T22:15:58.893Z,98799.50
2022-08-31T22:21:24.156Z,98787.16
2022-08-31T22:23:56.064Z,98790.00
2022-08-31T22:26:28.548Z,98775.34
2022-08-31T22:28:59.288Z,98775.75
2022-08-31T22:31:28.748Z,98789.28
2022-08-31T22:33:59.295Z,98786.53
2022-08-31T22:36:32.346Z,98795.34
2022-08-31T22:39:03.465Z,98788.50
2022-08-31T22:41:33.757Z,98790.16
2022-08-31T22:44:03.240Z,98783.56
2022-08-31T22:46:32.376Z,98777.25
2022-08-31T22:49:03.230Z,98769.94
2022-08-31T22:51:32.367Z,98774.38
2022-08-31T22:54:01.389Z,98778.97
2022-08-31T22:56:33.804Z,98777.00
2022-08-31T22:59:07.635Z,98789.03
2022-08-31T23:01:41.989Z,98778.72
2022-08-31T23:04:16.129Z,98779.44
2022-08-31T23:06:45.254Z,98778.63
2022-08-31T23:09:16.693Z,98787.19
2022-08-31T23:11:45.811Z,98775.03
2022-08-31T23:14:14.793Z,98783.34
2022-08-31T23:16:47.341Z,98782.59
2022-08-31T23:19:20.193Z,98773.88
2022-08-31T23:21:52.895Z,98779.53
2022-08-31T23:24:29.872Z,98775.75
2022-08-31T23:27:04.332Z,98777.38
2022-08-31T23:29:34.913Z,98779.75
2022-08-31T23:32:04.652Z,98786.00
2022-08-31T23:34:38.587Z,98785.50
2022-08-31T23:37:10.568Z,98780.97
2022-08-31T23:39:43.546Z,98789.22
2022-08-31T23:42:13.972Z,98792.06
2022-08-31T23:44:44.352Z,98792.84
2022-08-31T23:47:14.850Z,98798.47
2022-08-31T23:49:47.787Z,98803.63
2022-08-31T23:52:18.749Z,98807.00
2022-08-31T23:54:49.593Z,98807.00
2022-08-31T23:57:33.021Z,98810.34
